sensor_id;sensor_type;location;lat;lon;timestamp;temperature;humidity
25570;DHT22;17955;45.542;9.238;2022-07-06T00:00:06;27.10;79.80
25570;DHT22;17955;45.542;9.238;2022-07-06T00:02:35;27.10;80.00
25570;DHT22;17955;45.542;9.238;2022-07-06T00:05:02;27.00;80.10
25570;DHT22;17955;45.542;9.238;2022-07-06T00:07:29;27.00;80.00
25570;DHT22;17955;45.542;9.238;2022-07-06T00:09:56;26.90;80.10
25570;DHT22;17955;45.542;9.238;2022-07-06T00:12:24;26.80;80.00
25570;DHT22;17955;45.542;9.238;2022-07-06T00:14:52;26.60;79.60
25570;DHT22;17955;45.542;9.238;2022-07-06T00:17:19;26.90;79.40
25570;DHT22;17955;45.542;9.238;2022-07-06T00:19:46;27.00;79.20
25570;DHT22;17955;45.542;9.238;2022-07-06T00:22:13;26.80;79.50
25570;DHT22;17955;45.542;9.238;2022-07-06T00:24:40;26.70;79.60
25570;DHT22;17955;45.542;9.238;2022-07-06T00:27:07;26.70;79.90
25570;DHT22;17955;45.542;9.238;2022-07-06T00:29:34;26.70;79.70
25570;DHT22;17955;45.542;9.238;2022-07-06T00:32:03;26.60;79.80
25570;DHT22;17955;45.542;9.238;2022-07-06T00:34:30;26.70;79.70
25570;DHT22;17955;45.542;9.238;2022-07-06T00:36:57;26.60;79.70
25570;DHT22;17955;45.542;9.238;2022-07-06T00:39:24;26.60;79.80
25570;DHT22;17955;45.542;9.238;2022-07-06T00:41:55;26.60;79.60
25570;DHT22;17955;45.542;9.238;2022-07-06T00:44:22;26.60;79.50
25570;DHT22;17955;45.542;9.238;2022-07-06T00:46:49;26.50;79.80
25570;DHT22;17955;45.542;9.238;2022-07-06T00:49:17;26.20;79.60
25570;DHT22;17955;45.542;9.238;2022-07-06T00:51:59;26.50;80.00
25570;DHT22;17955;45.542;9.238;2022-07-06T00:54:26;26.50;79.90
25570;DHT22;17955;45.542;9.238;2022-07-06T00:56:54;26.50;80.00
25570;DHT22;17955;45.542;9.238;2022-07-06T00:59:23;26.40;80.00
25570;DHT22;17955;45.542;9.238;2022-07-06T01:01:50;26.40;80.20
25570;DHT22;17955;45.542;9.238;2022-07-06T01:04:18;26.30;80.50
25570;DHT22;17955;45.542;9.238;2022-07-06T01:06:46;26.30;80.70
25570;DHT22;17955;45.542;9.238;2022-07-06T01:09:15;26.40;80.40
25570;DHT22;17955;45.542;9.238;2022-07-06T01:11:43;26.40;80.10
25570;DHT22;17955;45.542;9.238;2022-07-06T01:14:11;26.40;80.10
25570;DHT22;17955;45.542;9.238;2022-07-06T01:16:38;26.30;80.10
25570;DHT22;17955;45.542;9.238;2022-07-06T01:19:06;26.20;80.50
25570;DHT22;17955;45.542;9.238;2022-07-06T01:21:36;26.20;80.40
25570;DHT22;17955;45.542;9.238;2022-07-06T01:24:04;26.30;80.20
25570;DHT22;17955;45.542;9.238;2022-07-06T01:26:31;26.20;80.40
25570;DHT22;17955;45.542;9.238;2022-07-06T01:28:58;26.10;80.60
25570;DHT22;17955;45.542;9.238;2022-07-06T01:31:26;26.10;80.70
25570;DHT22;17955;45.542;9.238;2022-07-06T01:33:55;26.10;80.80
25570;DHT22;17955;45.542;9.238;2022-07-06T01:36:23;26.10;80.50
25570;DHT22;17955;45.542;9.238;2022-07-06T01:38:53;26.10;80.40
25570;DHT22;17955;45.542;9.238;2022-07-06T01:41:21;26.00;80.40
25570;DHT22;17955;45.542;9.238;2022-07-06T01:43:56;26.10;80.10
25570;DHT22;17955;45.542;9.238;2022-07-06T01:46:25;26.00;80.60
25570;DHT22;17955;45.542;9.238;2022-07-06T01:49:07;26.00;80.70
25570;DHT22;17955;45.542;9.238;2022-07-06T01:51:34;26.10;80.60
25570;DHT22;17955;45.542;9.238;2022-07-06T01:54:03;26.20;80.40
25570;DHT22;17955;45.542;9.238;2022-07-06T01:56:30;26.10;80.50
25570;DHT22;17955;45.542;9.238;2022-07-06T01:59:01;26.10;80.60
25570;DHT22;17955;45.542;9.238;2022-07-06T02:01:28;26.00;80.30
25570;DHT22;17955;45.542;9.238;2022-07-06T02:03:55;26.00;80.70
25570;DHT22;17955;45.542;9.238;2022-07-06T02:06:22;26.00;80.30
25570;DHT22;17955;45.542;9.238;2022-07-06T02:08:49;26.10;80.50
25570;DHT22;17955;45.542;9.238;2022-07-06T02:11:18;26.00;81.30
25570;DHT22;17955;45.542;9.238;2022-07-06T02:13:45;25.90;80.90
25570;DHT22;17955;45.542;9.238;2022-07-06T02:16:12;25.90;80.80
25570;DHT22;17955;45.542;9.238;2022-07-06T02:18:40;25.90;81.10
25570;DHT22;17955;45.542;9.238;2022-07-06T02:21:07;25.90;81.00
25570;DHT22;17955;45.542;9.238;2022-07-06T02:23:34;25.90;81.20
25570;DHT22;17955;45.542;9.238;2022-07-06T02:26:01;25.80;81.10
25570;DHT22;17955;45.542;9.238;2022-07-06T02:28:31;25.90;81.10
25570;DHT22;17955;45.542;9.238;2022-07-06T02:30:58;26.00;80.80
25570;DHT22;17955;45.542;9.238;2022-07-06T02:33:26;26.10;80.70
25570;DHT22;17955;45.542;9.238;2022-07-06T02:35:54;26.00;80.50
25570;DHT22;17955;45.542;9.238;2022-07-06T02:38:21;26.10;80.70
25570;DHT22;17955;45.542;9.238;2022-07-06T02:40:48;26.10;80.60
25570;DHT22;17955;45.542;9.238;2022-07-06T02:43:15;26.00;81.40
25570;DHT22;17955;45.542;9.238;2022-07-06T02:45:43;25.90;81.00
25570;DHT22;17955;45.542;9.238;2022-07-06T02:48:11;26.00;81.10
25570;DHT22;17955;45.542;9.238;2022-07-06T02:50:38;25.90;81.30
25570;DHT22;17955;45.542;9.238;2022-07-06T02:53:06;25.90;81.50
25570;DHT22;17955;45.542;9.238;2022-07-06T02:55:33;25.80;82.00
25570;DHT22;17955;45.542;9.238;2022-07-06T02:58:00;25.80;82.00
25570;DHT22;17955;45.542;9.238;2022-07-06T03:00:27;25.70;82.20
25570;DHT22;17955;45.542;9.238;2022-07-06T03:02:56;25.60;82.00
25570;DHT22;17955;45.542;9.238;2022-07-06T03:05:23;25.80;81.90
25570;DHT22;17955;45.542;9.238;2022-07-06T03:07:51;25.80;82.00
25570;DHT22;17955;45.542;9.238;2022-07-06T03:10:18;25.70;81.20
25570;DHT22;17955;45.542;9.238;2022-07-06T03:12:45;25.50;81.50
25570;DHT22;17955;45.542;9.238;2022-07-06T03:15:12;25.50;81.80
25570;DHT22;17955;45.542;9.238;2022-07-06T03:17:42;25.30;82.70
25570;DHT22;17955;45.542;9.238;2022-07-06T03:20:12;25.10;84.20
25570;DHT22;17955;45.542;9.238;2022-07-06T03:22:40;24.90;84.40
25570;DHT22;17955;45.542;9.238;2022-07-06T03:25:09;24.90;85.60
25570;DHT22;17955;45.542;9.238;2022-07-06T03:27:38;24.90;85.60
25570;DHT22;17955;45.542;9.238;2022-07-06T03:30:06;24.70;86.50
25570;DHT22;17955;45.542;9.238;2022-07-06T03:32:34;24.60;87.00
25570;DHT22;17955;45.542;9.238;2022-07-06T03:35:04;24.70;87.50
25570;DHT22;17955;45.542;9.238;2022-07-06T03:37:34;24.70;87.30
25570;DHT22;17955;45.542;9.238;2022-07-06T03:40:01;24.70;87.70
25570;DHT22;17955;45.542;9.238;2022-07-06T03:42:28;24.70;87.60
25570;DHT22;17955;45.542;9.238;2022-07-06T03:44:56;24.60;88.00
25570;DHT22;17955;45.542;9.238;2022-07-06T03:47:23;24.70;88.50
25570;DHT22;17955;45.542;9.238;2022-07-06T03:49:50;24.60;88.60
25570;DHT22;17955;45.542;9.238;2022-07-06T03:52:17;24.60;89.10
25570;DHT22;17955;45.542;9.238;2022-07-06T03:54:51;24.40;90.00
25570;DHT22;17955;45.542;9.238;2022-07-06T03:57:23;24.40;90.10
25570;DHT22;17955;45.542;9.238;2022-07-06T03:59:51;24.30;90.30
25570;DHT22;17955;45.542;9.238;2022-07-06T04:02:20;24.10;90.50
25570;DHT22;17955;45.542;9.238;2022-07-06T04:04:49;24.00;90.50
25570;DHT22;17955;45.542;9.238;2022-07-06T04:07:16;23.90;90.50
25570;DHT22;17955;45.542;9.238;2022-07-06T04:09:44;24.10;90.80
25570;DHT22;17955;45.542;9.238;2022-07-06T04:12:12;23.80;90.70
25570;DHT22;17955;45.542;9.238;2022-07-06T04:14:39;23.90;90.50
25570;DHT22;17955;45.542;9.238;2022-07-06T04:17:06;23.80;90.60
25570;DHT22;17955;45.542;9.238;2022-07-06T04:19:48;24.00;90.50
25570;DHT22;17955;45.542;9.238;2022-07-06T04:22:15;23.90;90.70
25570;DHT22;17955;45.542;9.238;2022-07-06T04:24:42;24.00;90.50
25570;DHT22;17955;45.542;9.238;2022-07-06T04:27:09;24.10;90.60
25570;DHT22;17955;45.542;9.238;2022-07-06T04:29:38;24.10;90.50
25570;DHT22;17955;45.542;9.238;2022-07-06T04:32:06;24.00;90.50
25570;DHT22;17955;45.542;9.238;2022-07-06T04:34:33;24.10;90.50
25570;DHT22;17955;45.542;9.238;2022-07-06T04:37:00;24.10;90.50
25570;DHT22;17955;45.542;9.238;2022-07-06T04:39:27;24.10;90.60
25570;DHT22;17955;45.542;9.238;2022-07-06T04:41:56;23.90;91.00
25570;DHT22;17955;45.542;9.238;2022-07-06T04:44:23;23.90;91.10
25570;DHT22;17955;45.542;9.238;2022-07-06T04:46:52;24.00;91.00
25570;DHT22;17955;45.542;9.238;2022-07-06T04:49:20;24.10;90.90
25570;DHT22;17955;45.542;9.238;2022-07-06T04:51:47;24.20;90.90
25570;DHT22;17955;45.542;9.238;2022-07-06T04:54:14;24.30;90.90
25570;DHT22;17955;45.542;9.238;2022-07-06T04:56:41;24.50;90.60
25570;DHT22;17955;45.542;9.238;2022-07-06T04:59:08;24.40;90.80
25570;DHT22;17955;45.542;9.238;2022-07-06T05:01:35;24.50;90.60
25570;DHT22;17955;45.542;9.238;2022-07-06T05:04:04;24.50;90.60
25570;DHT22;17955;45.542;9.238;2022-07-06T05:06:31;24.30;90.80
25570;DHT22;17955;45.542;9.238;2022-07-06T05:08:59;24.20;91.10
25570;DHT22;17955;45.542;9.238;2022-07-06T05:11:28;24.90;90.70
25570;DHT22;17955;45.542;9.238;2022-07-06T05:13:55;26.20;88.20
25570;DHT22;17955;45.542;9.238;2022-07-06T05:16:22;26.40;86.80
25570;DHT22;17955;45.542;9.238;2022-07-06T05:18:49;26.40;85.90
25570;DHT22;17955;45.542;9.238;2022-07-06T05:21:18;26.50;85.80
25570;DHT22;17955;45.542;9.238;2022-07-06T05:23:45;26.80;84.90
25570;DHT22;17955;45.542;9.238;2022-07-06T05:26:12;26.90;84.50
25570;DHT22;17955;45.542;9.238;2022-07-06T05:28:39;28.40;83.70
25570;DHT22;17955;45.542;9.238;2022-07-06T05:31:10;28.60;80.60
25570;DHT22;17955;45.542;9.238;2022-07-06T05:33:37;28.50;79.50
25570;DHT22;17955;45.542;9.238;2022-07-06T05:36:04;27.50;81.50
25570;DHT22;17955;45.542;9.238;2022-07-06T05:38:33;28.20;80.90
25570;DHT22;17955;45.542;9.238;2022-07-06T05:41:00;29.00;79.20
25570;DHT22;17955;45.542;9.238;2022-07-06T05:43:27;31.00;76.10
25570;DHT22;17955;45.542;9.238;2022-07-06T05:45:57;30.60;74.60
25570;DHT22;17955;45.542;9.238;2022-07-06T05:48:28;30.10;74.60
25570;DHT22;17955;45.542;9.238;2022-07-06T05:51:13;28.30;77.80
25570;DHT22;17955;45.542;9.238;2022-07-06T05:53:43;26.90;82.50
25570;DHT22;17955;45.542;9.238;2022-07-06T05:56:10;27.10;82.10
25570;DHT22;17955;45.542;9.238;2022-07-06T05:58:38;27.50;83.30
25570;DHT22;17955;45.542;9.238;2022-07-06T06:01:05;27.80;81.40
25570;DHT22;17955;45.542;9.238;2022-07-06T06:03:35;27.60;81.20
25570;DHT22;17955;45.542;9.238;2022-07-06T06:06:03;26.70;83.90
25570;DHT22;17955;45.542;9.238;2022-07-06T06:08:30;27.90;82.00
25570;DHT22;17955;45.542;9.238;2022-07-06T06:10:59;26.50;83.70
25570;DHT22;17955;45.542;9.238;2022-07-06T06:13:28;25.90;85.90
25570;DHT22;17955;45.542;9.238;2022-07-06T06:15:55;25.80;87.00
25570;DHT22;17955;45.542;9.238;2022-07-06T06:18:23;27.40;84.50
25570;DHT22;17955;45.542;9.238;2022-07-06T06:20:49;29.10;80.80
25570;DHT22;17955;45.542;9.238;2022-07-06T06:23:16;28.40;79.30
25570;DHT22;17955;45.542;9.238;2022-07-06T06:25:44;28.60;79.40
25570;DHT22;17955;45.542;9.238;2022-07-06T06:28:12;28.90;79.50
25570;DHT22;17955;45.542;9.238;2022-07-06T06:30:39;30.30;76.70
25570;DHT22;17955;45.542;9.238;2022-07-06T06:33:11;31.30;74.60
25570;DHT22;17955;45.542;9.238;2022-07-06T06:35:41;30.30;74.20
25570;DHT22;17955;45.542;9.238;2022-07-06T06:38:08;31.30;73.00
25570;DHT22;17955;45.542;9.238;2022-07-06T06:40:35;31.60;72.10
25570;DHT22;17955;45.542;9.238;2022-07-06T06:43:03;31.40;71.40
25570;DHT22;17955;45.542;9.238;2022-07-06T06:45:32;31.70;70.40
25570;DHT22;17955;45.542;9.238;2022-07-06T06:47:59;32.30;69.60
25570;DHT22;17955;45.542;9.238;2022-07-06T06:50:27;30.90;68.30
25570;DHT22;17955;45.542;9.238;2022-07-06T06:52:54;31.50;69.70
25570;DHT22;17955;45.542;9.238;2022-07-06T06:55:21;31.30;70.00
25570;DHT22;17955;45.542;9.238;2022-07-06T06:57:48;31.80;70.00
25570;DHT22;17955;45.542;9.238;2022-07-06T07:00:16;32.00;68.80
25570;DHT22;17955;45.542;9.238;2022-07-06T07:02:44;32.20;68.40
25570;DHT22;17955;45.542;9.238;2022-07-06T07:05:12;32.60;67.20
25570;DHT22;17955;45.542;9.238;2022-07-06T07:07:39;32.00;67.40
25570;DHT22;17955;45.542;9.238;2022-07-06T07:10:07;30.90;69.40
25570;DHT22;17955;45.542;9.238;2022-07-06T07:12:34;30.50;71.30
25570;DHT22;17955;45.542;9.238;2022-07-06T07:15:01;31.80;69.60
25570;DHT22;17955;45.542;9.238;2022-07-06T07:17:28;31.10;69.90
25570;DHT22;17955;45.542;9.238;2022-07-06T07:19:57;32.50;68.50
25570;DHT22;17955;45.542;9.238;2022-07-06T07:22:24;33.20;66.50
25570;DHT22;17955;45.542;9.238;2022-07-06T07:24:51;33.90;65.60
25570;DHT22;17955;45.542;9.238;2022-07-06T07:27:18;33.20;65.40
25570;DHT22;17955;45.542;9.238;2022-07-06T07:29:45;32.80;66.40
25570;DHT22;17955;45.542;9.238;2022-07-06T07:32:12;32.70;66.50
25570;DHT22;17955;45.542;9.238;2022-07-06T07:34:39;32.70;66.10
25570;DHT22;17955;45.542;9.238;2022-07-06T07:37:07;32.80;65.80
25570;DHT22;17955;45.542;9.238;2022-07-06T07:39:34;32.80;66.40
25570;DHT22;17955;45.542;9.238;2022-07-06T07:42:01;33.90;64.80
25570;DHT22;17955;45.542;9.238;2022-07-06T07:44:28;33.30;64.90
25570;DHT22;17955;45.542;9.238;2022-07-06T07:46:55;32.30;66.90
25570;DHT22;17955;45.542;9.238;2022-07-06T07:49:22;31.70;68.40
25570;DHT22;17955;45.542;9.238;2022-07-06T07:51:49;32.00;68.20
25570;DHT22;17955;45.542;9.238;2022-07-06T07:54:18;32.90;67.30
25570;DHT22;17955;45.542;9.238;2022-07-06T07:56:45;33.50;66.20
25570;DHT22;17955;45.542;9.238;2022-07-06T07:59:12;32.80;66.40
25570;DHT22;17955;45.542;9.238;2022-07-06T08:01:40;32.50;67.40
25570;DHT22;17955;45.542;9.238;2022-07-06T08:04:07;32.70;67.40
25570;DHT22;17955;45.542;9.238;2022-07-06T08:06:34;31.60;68.70
25570;DHT22;17955;45.542;9.238;2022-07-06T08:09:01;32.30;68.70
25570;DHT22;17955;45.542;9.238;2022-07-06T08:11:31;32.30;68.20
25570;DHT22;17955;45.542;9.238;2022-07-06T08:13:58;32.40;68.30
25570;DHT22;17955;45.542;9.238;2022-07-06T08:16:25;33.10;67.40
25570;DHT22;17955;45.542;9.238;2022-07-06T08:18:52;33.50;66.70
25570;DHT22;17955;45.542;9.238;2022-07-06T08:21:19;33.90;66.40
25570;DHT22;17955;45.542;9.238;2022-07-06T08:23:46;34.30;65.50
25570;DHT22;17955;45.542;9.238;2022-07-06T08:26:13;34.20;64.90
25570;DHT22;17955;45.542;9.238;2022-07-06T08:28:41;32.90;66.70
25570;DHT22;17955;45.542;9.238;2022-07-06T08:31:08;32.40;68.00
25570;DHT22;17955;45.542;9.238;2022-07-06T08:33:35;32.60;67.80
25570;DHT22;17955;45.542;9.238;2022-07-06T08:36:03;33.20;66.90
25570;DHT22;17955;45.542;9.238;2022-07-06T08:38:30;32.90;67.10
25570;DHT22;17955;45.542;9.238;2022-07-06T08:40:57;32.90;67.80
25570;DHT22;17955;45.542;9.238;2022-07-06T08:43:25;32.20;68.00
25570;DHT22;17955;45.542;9.238;2022-07-06T08:45:54;32.00;67.70
25570;DHT22;17955;45.542;9.238;2022-07-06T08:48:23;31.00;69.50
25570;DHT22;17955;45.542;9.238;2022-07-06T08:50:51;30.80;69.90
25570;DHT22;17955;45.542;9.238;2022-07-06T08:53:19;30.90;69.40
25570;DHT22;17955;45.542;9.238;2022-07-06T08:55:48;30.30;70.30
25570;DHT22;17955;45.542;9.238;2022-07-06T08:58:16;30.40;70.30
25570;DHT22;17955;45.542;9.238;2022-07-06T09:00:43;29.70;70.60
25570;DHT22;17955;45.542;9.238;2022-07-06T09:03:14;29.40;71.10
25570;DHT22;17955;45.542;9.238;2022-07-06T09:05:45;29.90;71.00
25570;DHT22;17955;45.542;9.238;2022-07-06T09:08:13;29.80;70.90
25570;DHT22;17955;45.542;9.238;2022-07-06T09:10:40;29.90;70.90
25570;DHT22;17955;45.542;9.238;2022-07-06T09:13:08;29.90;70.90
25570;DHT22;17955;45.542;9.238;2022-07-06T09:15:37;29.60;71.20
25570;DHT22;17955;45.542;9.238;2022-07-06T09:18:05;29.70;71.00
25570;DHT22;17955;45.542;9.238;2022-07-06T09:20:34;29.50;72.20
25570;DHT22;17955;45.542;9.238;2022-07-06T09:23:03;29.10;72.70
25570;DHT22;17955;45.542;9.238;2022-07-06T09:25:31;29.10;72.90
25570;DHT22;17955;45.542;9.238;2022-07-06T09:27:59;28.90;73.30
25570;DHT22;17955;45.542;9.238;2022-07-06T09:30:28;29.30;73.00
25570;DHT22;17955;45.542;9.238;2022-07-06T09:32:56;29.30;72.60
25570;DHT22;17955;45.542;9.238;2022-07-06T09:35:25;29.40;72.20
25570;DHT22;17955;45.542;9.238;2022-07-06T09:38:05;29.50;72.20
25570;DHT22;17955;45.542;9.238;2022-07-06T09:40:34;29.60;71.90
25570;DHT22;17955;45.542;9.238;2022-07-06T09:43:12;29.80;71.80
25570;DHT22;17955;45.542;9.238;2022-07-06T09:45:41;29.70;71.80
25570;DHT22;17955;45.542;9.238;2022-07-06T09:48:10;29.10;72.70
25570;DHT22;17955;45.542;9.238;2022-07-06T09:50:41;28.80;72.00
25570;DHT22;17955;45.542;9.238;2022-07-06T09:53:11;28.80;71.90
25570;DHT22;17955;45.542;9.238;2022-07-06T09:55:38;29.20;71.90
25570;DHT22;17955;45.542;9.238;2022-07-06T09:58:05;29.70;71.50
25570;DHT22;17955;45.542;9.238;2022-07-06T10:00:32;30.00;71.60
25570;DHT22;17955;45.542;9.238;2022-07-06T10:03:00;30.00;70.10
25570;DHT22;17955;45.542;9.238;2022-07-06T10:05:27;29.90;70.50
25570;DHT22;17955;45.542;9.238;2022-07-06T10:07:58;29.30;70.40
25570;DHT22;17955;45.542;9.238;2022-07-06T10:10:28;29.30;71.00
25570;DHT22;17955;45.542;9.238;2022-07-06T10:12:57;29.30;71.00
25570;DHT22;17955;45.542;9.238;2022-07-06T10:15:25;29.30;71.00
25570;DHT22;17955;45.542;9.238;2022-07-06T10:17:53;29.30;70.90
25570;DHT22;17955;45.542;9.238;2022-07-06T10:20:21;29.50;70.90
25570;DHT22;17955;45.542;9.238;2022-07-06T10:22:49;29.50;71.50
25570;DHT22;17955;45.542;9.238;2022-07-06T10:25:18;29.60;71.00
25570;DHT22;17955;45.542;9.238;2022-07-06T10:27:47;29.50;70.80
25570;DHT22;17955;45.542;9.238;2022-07-06T10:30:15;29.40;71.20
25570;DHT22;17955;45.542;9.238;2022-07-06T10:32:46;29.70;71.00
25570;DHT22;17955;45.542;9.238;2022-07-06T10:35:14;29.70;71.10
25570;DHT22;17955;45.542;9.238;2022-07-06T10:37:41;30.10;70.90
25570;DHT22;17955;45.542;9.238;2022-07-06T10:40:15;30.30;70.50
25570;DHT22;17955;45.542;9.238;2022-07-06T10:43:02;30.40;69.70
25570;DHT22;17955;45.542;9.238;2022-07-06T10:45:51;30.00;70.10
25570;DHT22;17955;45.542;9.238;2022-07-06T10:48:21;30.00;70.40
25570;DHT22;17955;45.542;9.238;2022-07-06T10:50:50;30.50;70.80
25570;DHT22;17955;45.542;9.238;2022-07-06T10:53:21;30.50;70.10
25570;DHT22;17955;45.542;9.238;2022-07-06T10:55:50;30.70;69.70
25570;DHT22;17955;45.542;9.238;2022-07-06T10:58:35;30.90;69.20
25570;DHT22;17955;45.542;9.238;2022-07-06T11:01:03;30.40;68.70
25570;DHT22;17955;45.542;9.238;2022-07-06T11:03:39;30.10;69.20
25570;DHT22;17955;45.542;9.238;2022-07-06T11:06:08;30.10;69.40
25570;DHT22;17955;45.542;9.238;2022-07-06T11:08:52;30.00;69.80
25570;DHT22;17955;45.542;9.238;2022-07-06T11:11:21;30.10;70.00
25570;DHT22;17955;45.542;9.238;2022-07-06T11:13:58;30.20;69.20
25570;DHT22;17955;45.542;9.238;2022-07-06T11:16:28;30.40;69.00
25570;DHT22;17955;45.542;9.238;2022-07-06T11:19:09;30.20;68.80
25570;DHT22;17955;45.542;9.238;2022-07-06T11:21:39;30.30;68.80
25570;DHT22;17955;45.542;9.238;2022-07-06T11:24:08;30.50;68.90
25570;DHT22;17955;45.542;9.238;2022-07-06T11:26:36;30.60;67.40
25570;DHT22;17955;45.542;9.238;2022-07-06T11:29:06;30.50;67.60
25570;DHT22;17955;45.542;9.238;2022-07-06T11:31:34;30.40;67.20
25570;DHT22;17955;45.542;9.238;2022-07-06T11:34:02;30.40;67.50
25570;DHT22;17955;45.542;9.238;2022-07-06T11:36:29;30.50;67.60
25570;DHT22;17955;45.542;9.238;2022-07-06T11:38:56;30.40;67.40
25570;DHT22;17955;45.542;9.238;2022-07-06T11:41:24;30.40;67.00
25570;DHT22;17955;45.542;9.238;2022-07-06T11:43:51;30.20;67.80
25570;DHT22;17955;45.542;9.238;2022-07-06T11:46:24;30.20;67.30
25570;DHT22;17955;45.542;9.238;2022-07-06T11:48:54;30.00;67.30
25570;DHT22;17955;45.542;9.238;2022-07-06T11:51:22;30.20;66.90
25570;DHT22;17955;45.542;9.238;2022-07-06T11:53:50;30.00;65.50
25570;DHT22;17955;45.542;9.238;2022-07-06T11:56:18;30.10;66.00
25570;DHT22;17955;45.542;9.238;2022-07-06T11:58:49;29.80;66.50
25570;DHT22;17955;45.542;9.238;2022-07-06T12:01:16;30.00;66.50
25570;DHT22;17955;45.542;9.238;2022-07-06T12:03:45;30.50;66.40
25570;DHT22;17955;45.542;9.238;2022-07-06T12:06:15;30.80;66.30
25570;DHT22;17955;45.542;9.238;2022-07-06T12:08:43;31.00;65.50
25570;DHT22;17955;45.542;9.238;2022-07-06T12:11:14;31.00;65.80
25570;DHT22;17955;45.542;9.238;2022-07-06T12:13:42;30.90;64.90
25570;DHT22;17955;45.542;9.238;2022-07-06T12:16:10;30.80;64.40
25570;DHT22;17955;45.542;9.238;2022-07-06T12:18:38;30.50;63.80
25570;DHT22;17955;45.542;9.238;2022-07-06T12:21:09;30.60;64.10
25570;DHT22;17955;45.542;9.238;2022-07-06T12:23:45;30.60;64.20
25570;DHT22;17955;45.542;9.238;2022-07-06T12:26:13;30.70;63.40
25570;DHT22;17955;45.542;9.238;2022-07-06T12:28:40;30.80;63.90
25570;DHT22;17955;45.542;9.238;2022-07-06T12:31:08;31.00;63.90
25570;DHT22;17955;45.542;9.238;2022-07-06T12:33:35;31.10;63.80
25570;DHT22;17955;45.542;9.238;2022-07-06T12:36:14;31.10;63.10
25570;DHT22;17955;45.542;9.238;2022-07-06T12:38:45;30.90;62.10
25570;DHT22;17955;45.542;9.238;2022-07-06T12:41:31;30.90;62.50
25570;DHT22;17955;45.542;9.238;2022-07-06T12:44:04;31.00;62.10
25570;DHT22;17955;45.542;9.238;2022-07-06T12:46:34;30.60;62.70
25570;DHT22;17955;45.542;9.238;2022-07-06T12:49:03;30.30;62.70
25570;DHT22;17955;45.542;9.238;2022-07-06T12:51:57;30.50;62.60
25570;DHT22;17955;45.542;9.238;2022-07-06T12:54:27;30.70;62.30
25570;DHT22;17955;45.542;9.238;2022-07-06T12:57:09;30.70;62.10
25570;DHT22;17955;45.542;9.238;2022-07-06T12:59:40;30.90;61.50
25570;DHT22;17955;45.542;9.238;2022-07-06T13:02:09;31.10;61.70
25570;DHT22;17955;45.542;9.238;2022-07-06T13:04:37;31.20;61.70
25570;DHT22;17955;45.542;9.238;2022-07-06T13:07:05;31.30;61.50
25570;DHT22;17955;45.542;9.238;2022-07-06T13:09:32;31.30;61.10
25570;DHT22;17955;45.542;9.238;2022-07-06T13:12:00;31.40;61.10
25570;DHT22;17955;45.542;9.238;2022-07-06T13:14:27;31.20;60.90
25570;DHT22;17955;45.542;9.238;2022-07-06T13:16:54;31.40;61.30
25570;DHT22;17955;45.542;9.238;2022-07-06T13:19:21;31.50;61.60
25570;DHT22;17955;45.542;9.238;2022-07-06T13:21:48;31.60;61.60
25570;DHT22;17955;45.542;9.238;2022-07-06T13:24:17;31.30;61.10
25570;DHT22;17955;45.542;9.238;2022-07-06T13:26:44;31.30;61.10
25570;DHT22;17955;45.542;9.238;2022-07-06T13:29:12;31.40;61.00
25570;DHT22;17955;45.542;9.238;2022-07-06T13:31:40;31.30;60.20
25570;DHT22;17955;45.542;9.238;2022-07-06T13:34:07;31.10;60.80
25570;DHT22;17955;45.542;9.238;2022-07-06T13:36:35;31.10;60.50
25570;DHT22;17955;45.542;9.238;2022-07-06T13:39:03;31.30;61.80
25570;DHT22;17955;45.542;9.238;2022-07-06T13:41:32;31.00;61.60
25570;DHT22;17955;45.542;9.238;2022-07-06T13:44:00;31.00;61.80
25570;DHT22;17955;45.542;9.238;2022-07-06T13:46:27;30.80;61.90
25570;DHT22;17955;45.542;9.238;2022-07-06T13:48:55;30.80;61.60
25570;DHT22;17955;45.542;9.238;2022-07-06T13:51:23;30.90;61.70
25570;DHT22;17955;45.542;9.238;2022-07-06T13:53:50;30.90;61.40
25570;DHT22;17955;45.542;9.238;2022-07-06T13:56:17;31.10;61.20
25570;DHT22;17955;45.542;9.238;2022-07-06T13:58:46;31.10;61.70
25570;DHT22;17955;45.542;9.238;2022-07-06T14:01:13;31.20;61.80
25570;DHT22;17955;45.542;9.238;2022-07-06T14:03:40;31.10;61.40
25570;DHT22;17955;45.542;9.238;2022-07-06T14:06:08;31.00;61.50
25570;DHT22;17955;45.542;9.238;2022-07-06T14:08:35;31.00;61.50
25570;DHT22;17955;45.542;9.238;2022-07-06T14:11:03;31.10;61.60
25570;DHT22;17955;45.542;9.238;2022-07-06T14:13:30;31.00;62.00
25570;DHT22;17955;45.542;9.238;2022-07-06T14:15:59;31.00;62.00
25570;DHT22;17955;45.542;9.238;2022-07-06T14:18:27;30.90;61.90
25570;DHT22;17955;45.542;9.238;2022-07-06T14:20:54;30.80;61.80
25570;DHT22;17955;45.542;9.238;2022-07-06T14:23:22;31.00;61.50
25570;DHT22;17955;45.542;9.238;2022-07-06T14:25:49;30.90;61.40
25570;DHT22;17955;45.542;9.238;2022-07-06T14:28:17;31.10;61.30
25570;DHT22;17955;45.542;9.238;2022-07-06T14:30:45;31.20;61.10
25570;DHT22;17955;45.542;9.238;2022-07-06T14:33:14;31.30;61.10
25570;DHT22;17955;45.542;9.238;2022-07-06T14:35:45;31.30;60.80
25570;DHT22;17955;45.542;9.238;2022-07-06T14:38:13;31.30;60.90
25570;DHT22;17955;45.542;9.238;2022-07-06T14:40:40;31.40;61.30
25570;DHT22;17955;45.542;9.238;2022-07-06T14:43:08;31.40;61.50
25570;DHT22;17955;45.542;9.238;2022-07-06T14:45:36;31.30;62.00
25570;DHT22;17955;45.542;9.238;2022-07-06T14:48:03;31.00;62.30
25570;DHT22;17955;45.542;9.238;2022-07-06T14:50:32;30.90;63.00
25570;DHT22;17955;45.542;9.238;2022-07-06T14:53:00;31.10;62.60
25570;DHT22;17955;45.542;9.238;2022-07-06T14:55:27;31.30;62.40
25570;DHT22;17955;45.542;9.238;2022-07-06T14:57:54;31.50;61.90
25570;DHT22;17955;45.542;9.238;2022-07-06T15:00:21;31.50;62.00
25570;DHT22;17955;45.542;9.238;2022-07-06T15:02:48;31.60;61.60
25570;DHT22;17955;45.542;9.238;2022-07-06T15:05:15;31.50;61.70
25570;DHT22;17955;45.542;9.238;2022-07-06T15:07:44;31.50;61.50
25570;DHT22;17955;45.542;9.238;2022-07-06T15:10:11;31.40;62.30
25570;DHT22;17955;45.542;9.238;2022-07-06T15:12:38;31.40;62.50
25570;DHT22;17955;45.542;9.238;2022-07-06T15:15:05;31.30;62.20
25570;DHT22;17955;45.542;9.238;2022-07-06T15:17:33;31.20;61.50
25570;DHT22;17955;45.542;9.238;2022-07-06T15:20:00;31.20;61.70
25570;DHT22;17955;45.542;9.238;2022-07-06T15:22:27;31.40;61.60
25570;DHT22;17955;45.542;9.238;2022-07-06T15:24:55;31.00;62.50
25570;DHT22;17955;45.542;9.238;2022-07-06T15:27:22;30.90;62.50
25570;DHT22;17955;45.542;9.238;2022-07-06T15:29:49;30.90;62.50
25570;DHT22;17955;45.542;9.238;2022-07-06T15:32:17;30.90;62.20
25570;DHT22;17955;45.542;9.238;2022-07-06T15:34:44;31.00;62.00
25570;DHT22;17955;45.542;9.238;2022-07-06T15:37:11;30.90;61.40